createdAt,value
2023-05-05T00:01:03.492Z,61.44
2023-05-05T00:03:31.574Z,61.27
2023-05-05T00:05:59.506Z,61.40
2023-05-05T00:08:28.446Z,61.57
2023-05-05T00:10:57.547Z,61.47
2023-05-05T00:13:26.030Z,61.70
2023-05-05T00:15:55.204Z,61.64
2023-05-05T00:18:24.542Z,61.42
2023-05-05T00:20:52.631Z,61.59
2023-05-05T00:23:21.503Z,61.10
2023-05-05T00:25:49.425Z,61.58
2023-05-05T00:28:17.345Z,61.39
2023-05-05T00:30:45.321Z,61.93
2023-05-05T00:33:13.322Z,60.88
2023-05-05T00:35:42.914Z,61.37
2023-05-05T00:38:10.791Z,61.42
2023-05-05T00:40:38.945Z,61.16
2023-05-05T00:43:07.551Z,61.28
2023-05-05T00:45:37.391Z,61.42
2023-05-05T00:48:06.978Z,61.61
2023-05-05T00:50:35.418Z,61.85
2023-05-05T00:53:07.713Z,61.87
2023-05-05T00:55:36.613Z,61.89
2023-05-05T00:58:05.285Z,61.89
2023-05-05T01:00:34.292Z,62.05
2023-05-05T01:03:03.215Z,61.66
2023-05-05T01:05:43.496Z,62.45
2023-05-05T01:08:34.445Z,62.09
2023-05-05T01:11:10.887Z,62.47
2023-05-05T01:13:51.257Z,62.11
2023-05-05T01:16:24.782Z,62.29
2023-05-05T01:19:01.848Z,62.49
2023-05-05T01:21:37.003Z,62.67
2023-05-05T01:24:45.252Z,62.87
2023-05-05T01:27:45.985Z,62.92
2023-05-05T01:30:57.231Z,63.13
2023-05-05T01:33:35.972Z,63.45
2023-05-05T01:36:13.149Z,63.69
2023-05-05T01:38:47.189Z,63.00
2023-05-05T01:41:23.967Z,63.51
2023-05-05T01:43:56.038Z,63.64
2023-05-05T01:46:25.985Z,63.91
2023-05-05T01:48:58.431Z,64.23
2023-05-05T01:51:28.592Z,64.08
2023-05-05T01:54:01.600Z,64.29
2023-05-05T01:56:33.243Z,64.31
2023-05-05T01:59:02.908Z,64.34
2023-05-05T02:01:32.707Z,64.23
2023-05-05T02:04:06.252Z,64.68
2023-05-05T02:06:36.727Z,64.86
2023-05-05T02:09:05.754Z,64.16
2023-05-05T02:11:34.328Z,64.28
2023-05-05T02:14:03.972Z,64.40
2023-05-05T02:16:33.073Z,64.01
2023-05-05T02:19:05.332Z,64.29
2023-05-05T02:21:34.810Z,64.51
2023-05-05T02:24:03.626Z,64.48
2023-05-05T02:26:39.490Z,65.56
2023-05-05T02:29:13.825Z,64.83
2023-05-05T02:31:47.900Z,64.96
2023-05-05T02:34:26.557Z,65.01
2023-05-05T02:36:59.331Z,64.88
2023-05-05T02:39:35.199Z,65.38
2023-05-05T02:42:05.726Z,65.16
2023-05-05T02:44:36.973Z,64.91
2023-05-05T02:47:05.139Z,65.37
2023-05-05T02:49:34.517Z,65.22
2023-05-05T02:52:02.534Z,65.17
2023-05-05T02:54:33.605Z,65.55
2023-05-05T02:57:02.751Z,66.08
2023-05-05T02:59:42.287Z,65.72
2023-05-05T03:02:20.902Z,65.62
2023-05-05T03:04:56.350Z,65.46
2023-05-05T03:07:28.975Z,65.94
2023-05-05T03:10:07.321Z,65.47
2023-05-05T03:12:45.690Z,65.59
2023-05-05T03:15:15.280Z,66.00
2023-05-05T03:17:46.376Z,65.69
2023-05-05T03:20:16.378Z,66.18
2023-05-05T03:22:44.367Z,66.01
2023-05-05T03:25:12.326Z,65.80
2023-05-05T03:27:40.329Z,66.05
2023-05-05T03:30:10.232Z,66.14
2023-05-05T03:32:38.301Z,65.87
2023-05-05T03:35:07.510Z,66.04
2023-05-05T03:37:36.726Z,65.95
2023-05-05T03:40:05.322Z,65.96
2023-05-05T03:42:33.480Z,65.62
2023-05-05T03:45:01.306Z,65.79
2023-05-05T03:47:29.204Z,65.65
2023-05-05T03:49:57.108Z,65.51
2023-05-05T03:52:24.995Z,65.84
2023-05-05T03:54:54.376Z,66.26
2023-05-05T03:57:22.259Z,65.96
2023-05-05T03:59:50.161Z,66.25
2023-05-05T04:02:18.903Z,65.60
2023-05-05T04:04:47.053Z,66.09
2023-05-05T04:07:14.997Z,65.87
2023-05-05T04:09:44.626Z,65.35
2023-05-05T04:12:14.445Z,65.23
2023-05-05T04:14:42.402Z,64.69
2023-05-05T04:17:10.382Z,64.86
2023-05-05T04:19:38.338Z,64.06
2023-05-05T04:22:06.331Z,63.61
2023-05-05T04:24:34.322Z,63.58
2023-05-05T04:27:02.272Z,61.36
2023-05-05T04:29:31.580Z,59.61
2023-05-05T04:31:59.491Z,57.24
2023-05-05T04:34:27.490Z,56.52
2023-05-05T04:36:55.431Z,56.01
2023-05-05T04:39:23.339Z,55.51
2023-05-05T04:41:51.327Z,54.90
2023-05-05T04:44:19.407Z,54.47
2023-05-05T04:46:48.999Z,55.08
2023-05-05T04:49:16.980Z,55.69
2023-05-05T04:51:44.855Z,56.71
2023-05-05T04:54:12.916Z,56.42
2023-05-05T04:56:40.785Z,55.50
2023-05-05T04:59:08.764Z,54.69
2023-05-05T05:01:38.621Z,56.62
2023-05-05T05:04:08.647Z,57.84
2023-05-05T05:06:36.627Z,58.99
2023-05-05T05:09:04.739Z,58.91
2023-05-05T05:11:32.689Z,56.37
2023-05-05T05:14:00.623Z,54.54
2023-05-05T05:16:28.680Z,53.80
2023-05-05T05:18:56.656Z,53.64
2023-05-05T05:21:26.009Z,55.14
2023-05-05T05:23:54.010Z,57.27
2023-05-05T05:26:22.115Z,57.49
2023-05-05T05:28:50.024Z,58.52
2023-05-05T05:31:18.457Z,58.59
2023-05-05T05:33:46.348Z,58.34
2023-05-05T05:36:14.253Z,57.27
2023-05-05T05:38:43.572Z,57.16
2023-05-05T05:41:12.242Z,57.05
2023-05-05T05:43:40.152Z,56.94
2023-05-05T05:46:09.372Z,56.56
2023-05-05T05:48:37.496Z,56.74
2023-05-05T05:51:05.553Z,57.69
2023-05-05T05:53:33.758Z,55.98
2023-05-05T05:56:03.139Z,57.06
2023-05-05T05:58:31.037Z,55.86
2023-05-05T06:00:59.840Z,55.14
2023-05-05T06:03:28.026Z,54.87
2023-05-05T06:05:56.091Z,53.24
2023-05-05T06:08:25.062Z,52.76
2023-05-05T06:10:53.044Z,52.78
2023-05-05T06:13:22.444Z,52.54
2023-05-05T06:15:50.339Z,52.25
2023-05-05T06:18:18.376Z,52.79
2023-05-05T06:20:46.284Z,52.50
2023-05-05T06:23:14.179Z,52.70
2023-05-05T06:25:42.118Z,52.34
2023-05-05T06:28:10.036Z,52.38
2023-05-05T06:30:39.375Z,51.97
2023-05-05T06:33:07.384Z,52.67
2023-05-05T06:35:35.431Z,52.28
2023-05-05T06:38:03.366Z,52.05
2023-05-05T06:40:31.772Z,51.44
2023-05-05T06:43:00.125Z,51.29
2023-05-05T06:45:28.175Z,51.66
2023-05-05T06:48:04.927Z,50.31
2023-05-05T06:50:32.820Z,50.00
2023-05-05T06:53:01.219Z,49.92
2023-05-05T06:55:29.124Z,49.75
2023-05-05T06:57:56.970Z,49.17
2023-05-05T07:00:25.404Z,49.15
2023-05-05T07:02:53.310Z,49.16
2023-05-05T07:05:22.655Z,49.48
2023-05-05T07:07:54.655Z,49.66
2023-05-05T07:10:24.256Z,49.62
2023-05-05T07:12:54.717Z,49.28
2023-05-05T07:15:27.360Z,49.43
2023-05-05T07:17:56.548Z,50.31
2023-05-05T07:20:26.763Z,48.84
2023-05-05T07:22:54.858Z,49.04
2023-05-05T07:25:23.041Z,49.91
2023-05-05T07:27:51.492Z,49.68
2023-05-05T07:30:20.057Z,49.22
2023-05-05T07:32:48.365Z,49.00
2023-05-05T07:35:16.523Z,49.13
2023-05-05T07:37:46.213Z,49.23
2023-05-05T07:40:14.816Z,49.27
2023-05-05T07:42:42.828Z,48.88
2023-05-05T07:45:11.516Z,48.80
2023-05-05T07:47:40.524Z,47.63
2023-05-05T07:50:09.936Z,47.93
2023-05-05T07:52:48.364Z,48.26
2023-05-05T07:55:23.175Z,48.50
2023-05-05T07:57:51.210Z,48.07
2023-05-05T08:00:21.567Z,47.60
2023-05-05T08:02:50.133Z,47.74
2023-05-05T08:05:18.544Z,46.67
2023-05-05T08:07:46.412Z,47.33
2023-05-05T08:10:14.409Z,47.64
2023-05-05T08:12:43.735Z,46.54
2023-05-05T08:15:12.435Z,46.82
2023-05-05T08:17:48.648Z,47.76
2023-05-05T08:20:17.596Z,47.54
2023-05-05T08:22:46.575Z,47.46
2023-05-05T08:25:15.245Z,47.45
2023-05-05T08:27:44.634Z,47.14
2023-05-05T08:30:13.613Z,46.85
2023-05-05T08:32:41.643Z,46.36
2023-05-05T08:35:10.770Z,46.51
2023-05-05T08:37:38.964Z,45.42
2023-05-05T08:40:08.651Z,44.96
2023-05-05T08:42:39.115Z,44.59
2023-05-05T08:45:11.523Z,45.48
2023-05-05T08:47:40.707Z,45.38
2023-05-05T08:50:13.054Z,44.23
2023-05-05T08:52:44.922Z,43.66
2023-05-05T08:55:25.720Z,43.73
2023-05-05T08:57:57.174Z,43.13
2023-05-05T09:00:28.723Z,43.91
2023-05-05T09:02:58.783Z,43.04
2023-05-05T09:05:27.983Z,43.15
2023-05-05T09:07:55.944Z,43.39
2023-05-05T09:10:25.583Z,43.72
2023-05-05T09:12:53.699Z,43.63
2023-05-05T09:15:21.783Z,43.63
2023-05-05T09:17:51.210Z,43.12
2023-05-05T09:20:19.133Z,43.42
2023-05-05T09:22:49.100Z,43.27
2023-05-05T09:25:19.409Z,43.64
2023-05-05T09:27:50.109Z,43.70
2023-05-05T09:30:24.291Z,43.43
2023-05-05T09:32:56.286Z,42.50
2023-05-05T09:35:24.751Z,42.23
2023-05-05T09:37:53.084Z,41.35
2023-05-05T09:40:22.651Z,41.54
2023-05-05T09:43:02.779Z,41.93
2023-05-05T09:45:30.928Z,41.03
2023-05-05T09:48:00.985Z,41.80
2023-05-05T09:50:30.775Z,43.47
2023-05-05T09:53:02.026Z,41.97
2023-05-05T09:55:31.362Z,42.05
2023-05-05T09:58:19.312Z,42.19
2023-05-05T10:00:48.022Z,41.86
2023-05-05T10:03:17.948Z,40.70
2023-05-05T10:05:52.122Z,40.66
2023-05-05T10:08:21.902Z,40.92
2023-05-05T10:10:54.268Z,40.30
2023-05-05T10:13:24.904Z,40.76
2023-05-05T10:15:55.762Z,40.99
2023-05-05T10:18:28.228Z,41.68
2023-05-05T10:20:59.805Z,40.78
2023-05-05T10:23:37.046Z,41.14
2023-05-05T10:26:08.997Z,41.20
2023-05-05T10:28:46.000Z,41.20
2023-05-05T10:31:26.241Z,40.04
2023-05-05T10:34:04.420Z,40.81
2023-05-05T10:36:33.250Z,39.91
2023-05-05T10:39:02.383Z,39.84
2023-05-05T10:41:33.112Z,39.33
2023-05-05T10:44:04.440Z,40.07
2023-05-05T10:46:33.478Z,39.83
2023-05-05T10:49:15.685Z,39.67
2023-05-05T10:51:58.724Z,40.10
2023-05-05T10:54:38.460Z,39.37
2023-05-05T10:57:11.411Z,39.09
2023-05-05T10:59:47.328Z,39.76
2023-05-05T11:02:27.304Z,38.74
2023-05-05T11:05:17.858Z,38.99
2023-05-05T11:07:49.196Z,38.89
2023-05-05T11:10:20.353Z,38.84
2023-05-05T11:13:22.902Z,38.12
2023-05-05T11:15:54.020Z,38.31
2023-05-05T11:18:35.778Z,38.16
2023-05-05T11:21:16.983Z,38.04
2023-05-05T11:23:51.090Z,39.15
2023-05-05T11:26:53.059Z,37.76
2023-05-05T11:29:21.034Z,38.08
2023-05-05T11:32:12.367Z,38.09
2023-05-05T11:34:50.715Z,36.90
2023-05-05T11:37:18.750Z,37.52
2023-05-05T11:40:04.685Z,37.24
2023-05-05T11:42:34.361Z,37.06
2023-05-05T11:45:03.424Z,37.05
2023-05-05T11:47:33.669Z,36.89
2023-05-05T11:50:19.217Z,37.67
2023-05-05T11:52:48.285Z,36.65
2023-05-05T11:55:25.772Z,36.61
2023-05-05T11:57:55.233Z,37.10
2023-05-05T12:00:33.889Z,37.13
2023-05-05T12:03:02.294Z,36.74
2023-05-05T12:05:30.751Z,37.26
2023-05-05T12:07:59.577Z,37.15
2023-05-05T12:10:28.091Z,37.14
2023-05-05T12:12:57.517Z,35.87
2023-05-05T12:15:33.442Z,36.30
2023-05-05T12:18:03.359Z,35.53
2023-05-05T12:20:34.440Z,35.80
2023-05-05T12:23:04.923Z,35.56
2023-05-05T12:25:40.550Z,36.07
2023-05-05T12:28:10.750Z,35.98
2023-05-05T12:30:38.881Z,36.29
2023-05-05T12:33:09.143Z,36.59
2023-05-05T12:35:37.766Z,37.22
2023-05-05T12:38:06.114Z,36.09
2023-05-05T12:40:46.368Z,36.70
2023-05-05T12:43:33.150Z,35.77
2023-05-05T12:46:08.432Z,37.07
2023-05-05T12:48:39.129Z,36.04
2023-05-05T12:51:19.947Z,36.56
2023-05-05T12:53:50.272Z,36.25
2023-05-05T12:56:37.898Z,37.02
2023-05-05T12:59:09.158Z,36.89
2023-05-05T13:01:48.702Z,37.51
2023-05-05T13:04:17.245Z,38.04
2023-05-05T13:06:47.408Z,38.17
2023-05-05T13:09:25.719Z,38.09
2023-05-05T13:11:54.420Z,38.27
2023-05-05T13:14:24.475Z,36.99
2023-05-05T13:16:52.546Z,38.14
2023-05-05T13:19:20.628Z,37.99
2023-05-05T13:21:48.697Z,38.64
2023-05-05T13:24:23.592Z,38.00
2023-05-05T13:26:59.502Z,37.81
2023-05-05T13:29:31.573Z,37.64
2023-05-05T13:32:00.482Z,38.19
2023-05-05T13:34:28.439Z,37.53
2023-05-05T13:36:56.409Z,37.55
2023-05-05T13:39:24.432Z,37.29
2023-05-05T13:41:52.530Z,37.28
2023-05-05T13:44:20.606Z,36.67
2023-05-05T13:46:50.334Z,37.36
2023-05-05T13:49:18.265Z,37.56
2023-05-05T13:51:46.894Z,37.17
2023-05-05T13:54:15.306Z,37.04
2023-05-05T13:56:43.768Z,37.06
2023-05-05T13:59:11.828Z,37.01
2023-05-05T14:01:40.084Z,37.28
2023-05-05T14:04:09.773Z,37.02
2023-05-05T14:06:37.556Z,36.88
2023-05-05T14:09:06.278Z,36.79
2023-05-05T14:11:34.799Z,36.92
2023-05-05T14:14:02.829Z,36.00
2023-05-05T14:16:30.819Z,36.61
2023-05-05T14:18:58.812Z,36.35
2023-05-05T14:21:28.210Z,36.48
2023-05-05T14:23:56.250Z,35.97
2023-05-05T14:26:24.284Z,35.90
2023-05-05T14:28:52.563Z,36.00
2023-05-05T14:31:20.697Z,35.78
2023-05-05T14:33:48.906Z,35.27
2023-05-05T14:36:17.231Z,34.30
2023-05-05T14:38:46.660Z,34.49
2023-05-05T14:41:14.881Z,34.64
2023-05-05T14:43:42.923Z,33.96
2023-05-05T14:46:11.489Z,33.83
2023-05-05T14:48:42.487Z,34.12
2023-05-05T14:51:10.570Z,33.67
2023-05-05T14:53:38.852Z,34.71
2023-05-05T14:56:08.875Z,35.20
2023-05-05T14:58:37.229Z,33.70
2023-05-05T15:01:05.434Z,34.19
2023-05-05T15:03:33.467Z,33.85
2023-05-05T15:06:02.237Z,34.39
2023-05-05T15:08:30.167Z,35.01
2023-05-05T15:10:58.184Z,35.55
2023-05-05T15:13:27.729Z,35.30
2023-05-05T15:15:55.714Z,33.76
2023-05-05T15:18:23.779Z,33.66
2023-05-05T15:20:52.162Z,34.53
2023-05-05T15:23:20.190Z,34.13
2023-05-05T15:25:48.254Z,33.75
2023-05-05T15:28:17.312Z,32.98
2023-05-05T15:30:46.784Z,33.41
2023-05-05T15:33:14.757Z,33.02
2023-05-05T15:35:42.831Z,34.10
2023-05-05T15:38:11.129Z,34.88
2023-05-05T15:40:39.171Z,35.18
2023-05-05T15:43:07.218Z,36.29
2023-05-05T15:45:35.839Z,36.68
2023-05-05T15:48:05.768Z,36.82
2023-05-05T15:50:33.817Z,37.71
2023-05-05T15:53:02.126Z,36.32
2023-05-05T15:55:30.186Z,36.86
2023-05-05T15:57:58.281Z,37.51
2023-05-05T16:00:26.682Z,37.48
2023-05-05T16:02:54.815Z,37.81
2023-05-05T16:05:24.361Z,38.21
2023-05-05T16:07:53.621Z,38.49
2023-05-05T16:10:22.103Z,38.51
2023-05-05T16:12:51.921Z,38.92
2023-05-05T16:15:20.300Z,39.25
2023-05-05T16:17:48.369Z,39.35
2023-05-05T16:20:16.514Z,39.51
2023-05-05T16:22:45.927Z,39.96
2023-05-05T16:25:14.188Z,39.80
2023-05-05T16:27:42.182Z,39.96
2023-05-05T16:30:12.798Z,40.32
2023-05-05T16:32:40.771Z,40.78
2023-05-05T16:35:09.312Z,40.58
2023-05-05T16:37:37.404Z,40.56
2023-05-05T16:40:08.937Z,41.13
2023-05-05T16:42:37.058Z,41.29
2023-05-05T16:45:06.698Z,41.17
2023-05-05T16:47:34.788Z,41.18
2023-05-05T16:50:02.909Z,41.56
2023-05-05T16:52:40.025Z,41.81
2023-05-05T16:55:10.716Z,42.01
2023-05-05T16:57:39.124Z,41.74
2023-05-05T17:00:10.200Z,41.86
2023-05-05T17:02:38.259Z,41.97
2023-05-05T17:05:07.463Z,42.38
2023-05-05T17:07:35.810Z,42.51
2023-05-05T17:10:03.781Z,42.48
2023-05-05T17:12:33.199Z,42.55
2023-05-05T17:15:01.283Z,42.70
2023-05-05T17:17:29.303Z,42.71
2023-05-05T17:19:57.416Z,43.07
2023-05-05T17:22:25.406Z,43.12
2023-05-05T17:24:53.450Z,43.79
2023-05-05T17:27:21.577Z,43.49
2023-05-05T17:29:51.728Z,43.76
2023-05-05T17:32:19.726Z,43.68
2023-05-05T17:34:48.103Z,43.67
2023-05-05T17:37:16.090Z,43.99
2023-05-05T17:39:44.007Z,44.00
2023-05-05T17:42:11.961Z,44.55
2023-05-05T17:44:39.982Z,44.55
2023-05-05T17:47:10.510Z,44.86
2023-05-05T17:49:38.468Z,45.14
2023-05-05T17:52:06.542Z,45.20
2023-05-05T17:54:34.514Z,45.25
2023-05-05T17:57:02.718Z,45.60
2023-05-05T17:59:32.695Z,46.00
2023-05-05T18:02:00.860Z,46.45
2023-05-05T18:04:30.258Z,46.95
2023-05-05T18:06:58.673Z,46.66
2023-05-05T18:09:28.461Z,46.82
2023-05-05T18:11:56.361Z,47.17
2023-05-05T18:14:24.836Z,47.22
2023-05-05T18:16:53.785Z,47.69
2023-05-05T18:19:24.158Z,47.28
2023-05-05T18:21:55.351Z,47.99
2023-05-05T18:24:23.594Z,47.82
2023-05-05T18:26:53.916Z,47.97
2023-05-05T18:29:23.002Z,48.28
2023-05-05T18:31:54.689Z,48.35
2023-05-05T18:34:23.025Z,48.74
2023-05-05T18:36:54.307Z,48.42
2023-05-05T18:39:22.666Z,49.54
2023-05-05T18:41:51.073Z,52.54
2023-05-05T18:44:20.069Z,53.71
2023-05-05T18:46:48.136Z,55.64
2023-05-05T18:49:16.606Z,55.76
2023-05-05T18:51:45.128Z,55.17
2023-05-05T18:54:14.550Z,55.62
2023-05-05T18:56:42.822Z,54.13
2023-05-05T18:59:10.953Z,53.41
2023-05-05T19:01:39.078Z,52.89
2023-05-05T19:04:18.730Z,51.89
2023-05-05T19:06:52.513Z,52.29
2023-05-05T19:09:22.440Z,51.96
2023-05-05T19:11:51.069Z,51.37
2023-05-05T19:14:19.107Z,51.91
2023-05-05T19:16:47.569Z,52.56
2023-05-05T19:19:15.643Z,52.63
2023-05-05T19:21:43.769Z,53.05
2023-05-05T19:24:11.795Z,51.98
2023-05-05T19:26:41.337Z,51.86
2023-05-05T19:29:09.389Z,51.72
2023-05-05T19:31:38.002Z,52.22
2023-05-05T19:34:07.129Z,51.42
2023-05-05T19:36:35.801Z,50.94
2023-05-05T19:39:08.977Z,51.21
2023-05-05T19:41:37.306Z,51.25
2023-05-05T19:44:06.923Z,51.01
2023-05-05T19:46:37.291Z,51.17
2023-05-05T19:49:05.575Z,51.26
2023-05-05T19:51:33.605Z,51.15
2023-05-05T19:54:01.807Z,51.13
2023-05-05T19:56:29.919Z,51.71
2023-05-05T19:59:00.563Z,51.81
2023-05-05T20:01:31.426Z,51.38
2023-05-05T20:03:59.711Z,51.40
2023-05-05T20:06:27.985Z,51.72
2023-05-05T20:08:56.079Z,52.13
2023-05-05T20:11:24.420Z,51.33
2023-05-05T20:13:52.948Z,51.72
2023-05-05T20:16:22.470Z,51.79
2023-05-05T20:18:52.161Z,52.16
2023-05-05T20:21:21.145Z,52.67
2023-05-05T20:23:49.372Z,52.65
2023-05-05T20:26:17.455Z,52.77
2023-05-05T20:28:45.908Z,52.97
2023-05-05T20:31:15.875Z,53.26
2023-05-05T20:33:43.982Z,53.16
2023-05-05T20:36:13.423Z,52.68
2023-05-05T20:38:41.402Z,52.81
2023-05-05T20:41:09.450Z,52.93
2023-05-05T20:43:38.098Z,53.47
2023-05-05T20:46:09.992Z,53.53
2023-05-05T20:48:42.454Z,52.98
2023-05-05T20:51:11.208Z,53.62
2023-05-05T20:53:40.658Z,53.61
2023-05-05T20:56:09.249Z,53.93
2023-05-05T20:58:37.395Z,53.67
2023-05-05T21:01:05.368Z,54.11
2023-05-05T21:03:33.413Z,53.67
2023-05-05T21:06:02.511Z,53.97
2023-05-05T21:08:34.070Z,54.46
2023-05-05T21:11:03.966Z,53.87
2023-05-05T21:13:32.037Z,53.42
2023-05-05T21:16:00.144Z,53.58
2023-05-05T21:18:28.272Z,53.53
2023-05-05T21:20:56.597Z,53.38
2023-05-05T21:23:24.586Z,53.27
2023-05-05T21:25:52.613Z,53.57
2023-05-05T21:28:21.930Z,52.92
2023-05-05T21:31:10.313Z,53.24
2023-05-05T21:33:38.892Z,52.85
2023-05-05T21:36:07.589Z,52.78
2023-05-05T21:38:35.808Z,53.12
2023-05-05T21:41:03.760Z,52.75
2023-05-05T21:43:33.065Z,52.57
2023-05-05T21:46:01.669Z,52.10
2023-05-05T21:48:30.986Z,52.89
2023-05-05T21:50:59.154Z,53.45
2023-05-05T21:53:27.092Z,53.72
2023-05-05T21:55:55.161Z,53.20
2023-05-05T21:58:25.002Z,53.56
2023-05-05T22:00:54.792Z,54.58
2023-05-05T22:03:22.697Z,56.66
2023-05-05T22:05:50.988Z,59.28
2023-05-05T22:08:19.245Z,59.29
2023-05-05T22:10:47.528Z,59.41
2023-05-05T22:13:15.718Z,60.05
2023-05-05T22:15:47.167Z,59.08
2023-05-05T22:18:16.823Z,60.04
2023-05-05T22:20:44.953Z,60.66
2023-05-05T22:23:13.984Z,60.08
2023-05-05T22:25:42.006Z,59.80
2023-05-05T22:28:10.005Z,60.10
2023-05-05T22:30:38.089Z,60.86
2023-05-05T22:33:06.130Z,62.59
2023-05-05T22:35:35.937Z,61.94
2023-05-05T22:38:03.669Z,64.58
2023-05-05T22:40:31.731Z,65.33
2023-05-05T22:43:00.651Z,65.47
2023-05-05T22:45:28.604Z,63.55
2023-05-05T22:47:56.587Z,65.61
2023-05-05T22:50:24.736Z,65.52
2023-05-05T22:52:54.101Z,66.73
2023-05-05T22:55:24.307Z,66.37
2023-05-05T22:57:53.208Z,66.48
2023-05-05T23:00:21.250Z,67.69
2023-05-05T23:02:49.272Z,68.27
2023-05-05T23:05:17.321Z,70.11
2023-05-05T23:07:45.254Z,68.18
2023-05-05T23:10:14.628Z,68.78
2023-05-05T23:12:42.703Z,68.77
2023-05-05T23:15:12.252Z,70.59
2023-05-05T23:17:40.416Z,73.04
2023-05-05T23:20:12.066Z,73.40
2023-05-05T23:22:40.161Z,73.08
2023-05-05T23:25:09.880Z,72.76
2023-05-05T23:27:41.058Z,75.66
2023-05-05T23:30:11.103Z,74.96
2023-05-05T23:32:39.106Z,76.14
2023-05-05T23:35:08.585Z,78.46
2023-05-05T23:37:36.758Z,77.89
2023-05-05T23:40:06.743Z,79.87
2023-05-05T23:42:34.777Z,84.43
2023-05-05T23:45:05.527Z,85.68
2023-05-05T23:47:33.775Z,87.90
2023-05-05T23:50:02.059Z,87.22
2023-05-05T23:52:37.832Z,88.19
2023-05-05T23:55:07.569Z,89.80
2023-05-05T23:57:37.154Z,89.72
